Terminal Aerodrome Forecast
Issued by NWS

Home | Current Version | Previous Version | Text Only | Print | Product List | Glossary On
Versions: 1 2 3 4 5 6 7 8 9 10 11 12 13 14 15 16 17 18 19 20 21 22 23 24 25 26 27 28
000
FTUS44 KHGX 081401 AAA
TAFCXO
TAF AMD
KCXO 081401Z 0814/0912 01011G21KT P6SM OVC012
     FM081800 36012G22KT P6SM OVC025
     FM082200 36010KT P6SM SCT025 BKN080 BKN250
     FM090900 35006KT P6SM SCT080=

USA.gov is the U.S. government's official web portal to all federal, state and local government web resources and services.